Stations météo

réclame
Mon MeteoGroup
Hoerby, Suède (2623): Température de l'air & dewpoint: 04.12.2018 23:00:00 - 10.12.2018 23:00:00 (CET)Hoerby, Suède (2623): Vitesse du vent & gusts: 04.12.2018 23:00:00 - 10.12.2018 23:00:00 (CET)Hoerby, Suède (2623): Direction du vent: 04.12.2018 23:00:00 - 10.12.2018 23:00:00 (CET)Hoerby, Suède (2623): visibility: 04.12.2018 23:00:00 - 10.12.2018 23:00:00 (CET)Hoerby, Suède (2623): Quantités de précipitations: 04.12.2018 23:00:00 - 10.12.2018 23:00:00 (CET)
Date & Time tt [°C] td [°C] ff [km/h] ff [knt] fx [km/h] fx [knt] dd vv [km] rr [mm]
10.12.2018 23:00:00 - - - - - - - - -
10.12.2018 22:00:00 2,1 0,8 7 4 36 20 WNW 49 0,2
10.12.2018 21:00:00 2,9 0,0 16 8 36 20 NNW 14 0,1
10.12.2018 20:00:00 4,0 -1,0 14 8 34 19 NW 50 0,0
10.12.2018 19:00:00 4,3 0,3 14 7 24 13 WNW 37 0,0
10.12.2018 18:00:00 4,3 1,2 10 6 21 12 W 25 0,0
10.12.2018 17:00:00 3,7 1,1 9 5 25 14 W 28 0,0
10.12.2018 16:00:00 3,7 0,9 12 6 31 17 W 29 0,0
10.12.2018 15:00:00 3,9 0,6 13 7 33 18 WNW 29 0,0
10.12.2018 14:00:00 5,0 0,8 14 8 33 18 WNW 25 0,0
10.12.2018 13:00:00 4,2 0,3 14 8 30 16 W 31 0,0
10.12.2018 12:00:00 4,0 0,4 11 6 30 16 W 29 0,0
10.12.2018 11:00:00 4,5 -0,3 12 6 26 14 W 32 0,0
10.12.2018 10:00:00 3,3 0,4 8 4 21 12 W 30 0,0
10.12.2018 09:00:00 2,3 -0,1 8 4 16 8 W 36 0,0
10.12.2018 08:00:00 2,1 0,0 6 3 23 13 W 22 0,0
10.12.2018 07:00:00 2,4 -0,7 8 4 29 16 W 29 0,0
10.12.2018 06:00:00 2,8 -0,5 10 5 29 16 W 29 0,0
10.12.2018 05:00:00 3,4 0,4 14 8 29 16 W 32 0,0
10.12.2018 04:00:00 3,6 1,6 9 5 21 11 W 25 0,0
10.12.2018 03:00:00 3,2 1,9 9 5 22 12 W 22 0,0
10.12.2018 02:00:00 2,8 1,6 11 6 22 12 W 32 0,0
10.12.2018 01:00:00 1,5 0,5 6 4 16 8 W 36 0,0
10.12.2018 00:00:00 0,4 -1,5 2 1 16 9 W 50 0,0
09.12.2018 23:00:00 0,1 -1,7 5 3 27 15 W 50 0,0
09.12.2018 22:00:00 0,9 -1,0 9 5 27 15 NW 50 0,0
09.12.2018 21:00:00 2,0 -0,6 11 6 29 16 NW 50 0,0
09.12.2018 20:00:00 3,8 2,2 13 7 29 16 NW 50 0,1
09.12.2018 19:00:00 5,1 4,5 5 3 14 8 W 12 0,0
09.12.2018 18:00:00 5,3 4,6 6 4 16 9 W 20 -
09.12.2018 17:00:00 5,5 4,8 6 4 17 9 WSW 12 0,0
09.12.2018 16:00:00 5,7 4,8 8 4 17 9 SW 9 0,1
09.12.2018 15:00:00 6,0 5,0 6 3 16 9 SW 15 0,0
09.12.2018 14:00:00 5,9 4,5 8 4 18 10 W 17 0,0
09.12.2018 13:00:00 5,9 4,7 6 4 21 11 W 21 0,0
09.12.2018 12:00:00 5,8 4,9 8 5 21 11 W 24 0,0
09.12.2018 11:00:00 5,7 5,2 7 4 22 12 W 16 1,0
09.12.2018 10:00:00 5,8 5,2 9 5 22 12 WSW 3,9 0,4
09.12.2018 09:00:00 5,9 4,9 10 6 23 12 WSW 13 0,0
09.12.2018 08:00:00 5,7 4,7 9 5 29 15 SW 13 0,0
09.12.2018 07:00:00 5,7 4,3 14 8 31 17 SW 17 0,0
09.12.2018 06:00:00 5,9 4,4 15 8 38 20 SSW 15 0,0
09.12.2018 05:00:00 6,0 4,5 17 9 39 21 SW 14 0,0
09.12.2018 04:00:00 6,1 4,7 18 10 43 23 SSW 12 0,0
09.12.2018 03:00:00 6,1 4,7 21 12 46 25 SW 15 0,0
09.12.2018 02:00:00 6,1 5,1 20 11 47 25 SW 10 0,1
09.12.2018 01:00:00 6,5 5,0 25 14 47 25 SW 9 0,0
09.12.2018 00:00:00 6,6 4,8 22 12 43 23 SW 13 0,0
08.12.2018 23:00:00 6,4 4,6 19 11 43 23 SW 17 0,0
08.12.2018 22:00:00 6,5 4,5 20 11 49 27 SW 20 0,0
08.12.2018 21:00:00 6,6 5,1 19 11 49 27 SW 18 0,1
08.12.2018 20:00:00 6,6 5,1 21 11 47 25 SW 19 0,0
08.12.2018 19:00:00 6,5 5,1 23 12 46 25 SW 31 0,4
08.12.2018 18:00:00 6,5 5,4 22 12 46 25 SSW 5 0,5
08.12.2018 17:00:00 6,3 5,5 22 12 47 25 SSW 3,3 0,3
08.12.2018 16:00:00 6,2 5,3 21 12 48 26 SSW 5 0,4
08.12.2018 15:00:00 5,9 5,0 22 12 48 26 SSW 6 1,0
08.12.2018 14:00:00 5,8 4,8 20 11 47 26 SSW 8 0,4
08.12.2018 13:00:00 5,4 4,8 19 10 39 21 SW 5 2,2
08.12.2018 12:00:00 3,0 2,4 16 9 44 24 S 4,7 1,1
08.12.2018 11:00:00 2,9 1,8 18 10 43 23 SSW 8 2,0
08.12.2018 10:00:00 5,2 3,2 18 10 37 20 SW 15 0,0
08.12.2018 09:00:00 5,3 3,5 16 9 39 21 SW 15 0,0
08.12.2018 08:00:00 5,4 3,4 18 10 39 21 SW 14 0,0
08.12.2018 07:00:00 5,6 4,1 16 9 34 18 SW 12 0,0
08.12.2018 06:00:00 5,6 4,4 13 7 34 18 WSW 11 0,0
08.12.2018 05:00:00 5,7 4,8 14 8 37 20 W 9 0,7
08.12.2018 04:00:00 5,6 4,2 14 8 42 23 W 17 0,6
08.12.2018 03:00:00 6,2 5,0 18 10 42 23 W 10 1,0
08.12.2018 02:00:00 8,7 8,0 18 10 36 19 SW 9 2,0
08.12.2018 01:00:00 8,9 8,3 14 7 34 18 SW 8 0,1
08.12.2018 00:00:00 9,0 8,4 15 8 34 19 SSW 3,9 0,3
07.12.2018 23:00:00 9,1 8,5 16 9 35 19 SSW 8 0,1
07.12.2018 22:00:00 9,2 8,6 15 8 35 19 SSW 7 1,1
07.12.2018 21:00:00 9,4 8,9 15 8 33 18 SSW 3,7 1,0
07.12.2018 20:00:00 9,3 8,8 16 9 31 17 SSW 5 1,3
07.12.2018 19:00:00 8,8 8,5 13 7 27 14 S 3,4 0,8
07.12.2018 18:00:00 7,7 7,4 10 6 22 12 S 2,9 0,5
07.12.2018 17:00:00 7,2 6,8 11 6 22 12 SSE 2,6 0,4
07.12.2018 16:00:00 6,9 6,3 10 6 17 9 SSE 6 0,2
07.12.2018 15:00:00 7,2 6,1 6 4 14 7 SE 12 0,0
07.12.2018 14:00:00 7,3 6,1 5 3 17 9 SW 14 0,0
07.12.2018 13:00:00 7,2 6,5 8 4 17 9 SW 9 0,0
07.12.2018 12:00:00 7,4 6,8 8 4 18 10 SW 8 0,0
07.12.2018 11:00:00 7,5 6,9 8 5 22 12 W - 0,0
07.12.2018 10:00:00 7,8 7,4 8 4 22 12 W 9 0,0
07.12.2018 09:00:00 7,7 7,4 8 5 24 13 W 6 0,0
07.12.2018 08:00:00 7,7 7,3 8 4 29 16 W 7 0,0
07.12.2018 07:00:00 7,9 7,5 11 6 29 16 W 14 0,0
07.12.2018 06:00:00 8,1 8,0 9 5 29 15 W 2,5 0,3
07.12.2018 05:00:00 8,1 7,8 13 7 29 16 W 2,3 0,1
07.12.2018 04:00:00 8,2 7,9 14 8 29 16 WSW 1,8 0,3
07.12.2018 03:00:00 8,0 7,7 14 7 28 15 SW 3,8 0,5
07.12.2018 02:00:00 7,8 7,6 14 8 25 14 SW 2,8 1,0
07.12.2018 01:00:00 7,4 7,3 9 5 27 14 SW 3,6 0,6
07.12.2018 00:00:00 7,1 7,0 10 5 27 14 SW 3,1 0,6
06.12.2018 23:00:00 5,9 5,7 7 4 22 12 S 2,1 0,1
06.12.2018 22:00:00 5,0 4,9 9 5 20 11 S 2,2 0,3
06.12.2018 21:00:00 4,3 4,2 9 5 17 9 S 1,5 0,3
06.12.2018 20:00:00 3,7 3,6 9 5 16 9 S - 0,0
06.12.2018 19:00:00 3,4 3,1 10 5 15 8 SSE 1,1 0,0
06.12.2018 18:00:00 3,2 2,9 8 5 14 7 SSE 3,5 0,0
06.12.2018 17:00:00 3,0 2,6 6 4 12 6 SSE 3,6 0,5
06.12.2018 16:00:00 3,0 2,6 6 3 23 12 S 3,2 0,3
06.12.2018 15:00:00 2,9 2,3 6 3 23 12 S 2,7 0,1
06.12.2018 14:00:00 3,2 2,3 11 6 25 13 S 13 0,0
06.12.2018 13:00:00 3,2 2,3 10 6 25 13 S 7 0,4
06.12.2018 12:00:00 3,5 2,5 13 7 24 13 S 11 0,0
06.12.2018 11:00:00 3,6 2,7 9 5 20 11 SSE 8 0,0
06.12.2018 10:00:00 3,4 1,6 7 4 22 12 SSE 17 0,0
06.12.2018 09:00:00 3,2 1,1 11 6 22 12 SSE 19 0,0
06.12.2018 08:00:00 3,2 0,9 11 6 21 11 SSE 19 0,0
06.12.2018 07:00:00 3,2 0,8 11 6 22 12 SSE 25 0,0
06.12.2018 06:00:00 3,2 0,3 12 7 24 13 SSE 33 0,0
06.12.2018 05:00:00 3,3 0,9 13 7 24 13 SSE 23 0,0
06.12.2018 04:00:00 2,9 0,5 11 6 22 12 SE 27 0,0
06.12.2018 03:00:00 2,4 0,3 10 5 18 10 SE 27 0,0
06.12.2018 02:00:00 2,0 0,7 9 5 18 10 SSE 18 0,0
06.12.2018 01:00:00 1,8 1,5 5 3 10 6 SE - 0,0
06.12.2018 00:00:00 1,7 1,4 6 3 11 6 SE 4,0 0,0
05.12.2018 23:00:00 1,9 1,6 7 4 11 6 SSE 0,7 0,0
05.12.2018 22:00:00 1,3 0,7 6 3 9 5 SSE 6 0,0
05.12.2018 21:00:00 1,6 0,9 6 3 12 7 SSE 9 0,0
05.12.2018 20:00:00 2,7 1,7 3 2 12 7 SSW 13 0,0
05.12.2018 19:00:00 3,4 2,4 5 3 12 7 SSW 11 0,0
05.12.2018 18:00:00 4,1 3,2 5 3 12 7 SSW 9 0,0
05.12.2018 17:00:00 4,1 3,1 4 2 15 8 SW 12 0,0
05.12.2018 16:00:00 3,4 2,4 3 2 15 8 SSW 15 0,0
05.12.2018 15:00:00 4,2 2,7 5 3 16 9 WSW 21 0,0
05.12.2018 14:00:00 4,3 2,3 4 2 16 9 WSW 29 0,0
05.12.2018 13:00:00 4,2 2,2 8 4 16 9 WSW 24 0,0
05.12.2018 12:00:00 3,9 2,3 7 4 16 9 SW 22 0,0
05.12.2018 11:00:00 3,8 1,8 4 2 10 5 WSW 16 0,0
05.12.2018 10:00:00 2,7 0,8 3 2 11 6 W 17 0,0
05.12.2018 09:00:00 0,8 -0,5 5 3 13 7 W 18 0,0
05.12.2018 08:00:00 0,4 -1,5 4 2 13 7 W 20 0,0
05.12.2018 07:00:00 1,1 -1,1 6 3 19 10 WNW 22 0,0
05.12.2018 06:00:00 1,2 -1,5 6 3 19 10 W 23 0,0
05.12.2018 05:00:00 1,6 -1,1 7 4 17 9 W 23 0,0
05.12.2018 04:00:00 2,0 -0,7 6 3 21 11 W 21 0,0
05.12.2018 03:00:00 1,8 -1,6 6 3 21 11 W 25 0,0
05.12.2018 02:00:00 2,3 -2,4 9 5 25 13 W 30 0,0
05.12.2018 01:00:00 2,7 -2,2 9 5 28 15 WNW 26 0,0
05.12.2018 00:00:00 2,8 -2,3 13 7 28 15 WNW 29 0,0
04.12.2018 23:00:00 3,2 -1,9 11 6 28 15 WNW 28 0,0

tt = Température de l'air
td = dewpoint
ff = Vitesse du vent
fx = gusts
dd = Direction du vent
vv = visibility
rr = Quantités de précipitations

stations d'obs. à proximité